Accueil
METAR-TAF:

METAR-TAF

Aéroports :

Aéroport de Sliač

Banská Bystrica, Slovaquie

latitude: 48-38-17N, longitude: 019-08-03E, altitude: 318 m

METAR: absent

Heure: 06:17 (04:17 UTC)

Prévision

Le bulletin a été fait il y a 8 heures et 47 minutes, à 19:30 UTC
Prévision valable du 16 à 21 UTC au 17 à 06 UTC
Vent 2 kt de direction variable
Visibilité 10 km ou plus
pas de nuages en-dessous de 1500 mètres et pas de cumulonimbus.
Temporairement
du 16 à 23 UTC au 17 à 06 UTC
Visibilité: 1500 m
Nuages épars à une hauteur de 100 ft
bancs de brouillard
Probabilité 40% :
Temporairement
du 17 à 01 UTC au 17 à 06 UTC
Visibilité: 0300 m
Nuages fragmentés à une hauteur de 100 ft
brouillard,

TAF: LZSL 161930Z 1621/1706 VRB02KT CAVOK TEMPO 1623/1706 1500 BCFG SCT001 PROB40 TEMPO 1701/1706 0300 FG BKN001

Observations et prévisions météorologiques de plus de 4000 aéroports (messages METAR et TAF).

Les stations disponibles sont représentées par des disques jaunes et rouges sur la carte.

Passer la souris dessus pour voir le nom de la station.

Cliquer dessus pour voir les observations et prévisions météorologiques.

Pour changer de carte: cliquez sur les boutons verts avec une croix noire pour zoomer, sur le bouton vert avec un tiret pour effectuer un zoom arrière, ou sur les flèches vertes pour les cartes adjacentes.


METAR-TAF: